Wetterdaten: Samstag, 14.12.2013
Datum Zeit Temperatur Luftfeuchte Luftdruck Regen Wind Richtung Richtung Taupunkt Windchill Windben
14.12.2013 00:00 -6,6 C 89 % 1025,5 hPa 0,0 l/m 0,0 km/h (0 Bft) N-NO 22 -8,1 C -6,6 C 0,0 km/h (0 Bft)
14.12.2013 00:05 -6,6 C 89 % 1025,6 hPa 0,0 l/m 0,0 km/h (0 Bft) SO 135 -8,1 C -6,6 C 1,6 km/h (1 Bft)
14.12.2013 00:10 -6,6 C 89 % 1025,6 hPa 0,0 l/m 0,0 km/h (0 Bft) SO 135 -8,1 C -6,4 C 0,0 km/h (0 Bft)
14.12.2013 00:15 -5,8 C 90 % 1025,6 hPa 0,0 l/m 0,3 km/h (0 Bft) NO 45 -7,2 C -6,2 C 0,0 km/h (0 Bft)
14.12.2013 00:20 -4,6 C 91 % 1025,6 hPa 0,0 l/m 1,9 km/h (1 Bft) O-SO 112 -5,8 C -5,6 C 0,0 km/h (0 Bft)
14.12.2013 00:25 -5,7 C 90 % 1025,5 hPa 0,0 l/m 2,1 km/h (1 Bft) W-SW 247 -7,1 C -5,6 C 2,3 km/h (1 Bft)
14.12.2013 00:30 -5,9 C 90 % 1025,5 hPa 0,0 l/m 0,3 km/h (0 Bft) N 360 -7,3 C -5,8 C 0,0 km/h (0 Bft)
14.12.2013 00:35 -5,9 C 90 % 1025,5 hPa 0,0 l/m 0,2 km/h (0 Bft) N 360 -7,3 C -5,9 C 0,0 km/h (0 Bft)
14.12.2013 00:40 -6,1 C 90 % 1025,5 hPa 0,0 l/m 0,0 km/h (0 Bft) N 360 -7,5 C -6,0 C 0,0 km/h (0 Bft)
14.12.2013 00:45 -6,2 C 90 % 1025,8 hPa 0,0 l/m 0,0 km/h (0 Bft) N 360 -7,6 C -6,1 C 0,0 km/h (0 Bft)
14.12.2013 00:50 -6,5 C 90 % 1025,8 hPa 0,0 l/m 0,0 km/h (0 Bft) N-NW 337 -7,9 C -6,1 C 0,0 km/h (0 Bft)
14.12.2013 00:55 -6,5 C 90 % 1025,8 hPa 0,0 l/m 0,0 km/h (0 Bft) N 360 -7,9 C -6,0 C 0,0 km/h (0 Bft)
14.12.2013 01:00 -6,1 C 90 % 1025,8 hPa 0,0 l/m 0,0 km/h (0 Bft) N 360 -7,5 C -6,1 C 0,0 km/h (0 Bft)
14.12.2013 01:05 -6,1 C 90 % 1025,6 hPa 0,0 l/m 0,0 km/h (0 Bft) N-NW 337 -7,5 C -6,1 C 0,0 km/h (0 Bft)
14.12.2013 01:10 -5,9 C 90 % 1025,6 hPa 0,0 l/m 0,6 km/h (0 Bft) N-NO 22 -7,3 C -6,1 C 3,5 km/h (1 Bft)
14.12.2013 01:14 -6,1 C 90 % 1025,6 hPa 0,0 l/m 0,6 km/h (0 Bft) S 180 -7,5 C -6,0 C 0,0 km/h (0 Bft)
14.12.2013 01:15 -6,1 C 90 % 1025,6 hPa 0,0 l/m 0,6 km/h (0 Bft) S 180 -7,5 C -6,0 C 0,0 km/h (0 Bft)
14.12.2013 01:20 -6,8 C 89 % 1025,6 hPa 0,0 l/m 0,2 km/h (0 Bft) S 180 -8,3 C -6,4 C 0,0 km/h (0 Bft)
14.12.2013 01:25 -6,9 C 89 % 1025,6 hPa 0,0 l/m 0,0 km/h (0 Bft) S 180 -8,4 C -6,4 C 0,0 km/h (0 Bft)
14.12.2013 01:30 -6,7 C 89 % 1025,6 hPa 0,0 l/m 0,0 km/h (0 Bft) S 180 -8,2 C -6,8 C 0,0 km/h (0 Bft)
14.12.2013 01:35 -6,9 C 89 % 1025,6 hPa 0,0 l/m 0,0 km/h (0 Bft) S 180 -8,4 C -6,8 C 0,0 km/h (0 Bft)
14.12.2013 01:40 -6,9 C 89 % 1025,6 hPa 0,0 l/m 0,0 km/h (0 Bft) O 90 -8,4 C -6,9 C 0,0 km/h (0 Bft)
14.12.2013 01:45 -6,9 C 89 % 1025,7 hPa 0,0 l/m 0,0 km/h (0 Bft) O 90 -8,4 C -7,0 C 0,0 km/h (0 Bft)
14.12.2013 01:50 -7,0 C 89 % 1025,7 hPa 0,0 l/m 0,0 km/h (0 Bft) O 90 -8,5 C -7,0 C 0,0 km/h (0 Bft)
14.12.2013 01:55 -6,9 C 89 % 1025,7 hPa 0,0 l/m 0,0 km/h (0 Bft) O 90 -8,4 C -7,0 C 0,0 km/h (0 Bft)
14.12.2013 02:00 -6,9 C 89 % 1025,7 hPa 0,0 l/m 0,0 km/h (0 Bft) O 90 -8,4 C -6,9 C 0,0 km/h (0 Bft)
14.12.2013 02:05 -6,9 C 89 % 1025,8 hPa 0,0 l/m 0,0 km/h (0 Bft) O 90 -8,4 C -6,9 C 0,0 km/h (0 Bft)
14.12.2013 02:10 -7,3 C 89 % 1025,8 hPa 0,0 l/m 0,0 km/h (0 Bft) O 90 -8,8 C -7,0 C 0,0 km/h (0 Bft)
14.12.2013 02:15 -7,2 C 89 % 1025,8 hPa 0,0 l/m 0,0 km/h (0 Bft) O 90 -8,7 C -7,1 C 0,0 km/h (0 Bft)
14.12.2013 02:20 -7,3 C 89 % 1025,8 hPa 0,0 l/m 0,0 km/h (0 Bft) O 90 -8,8 C -7,2 C 0,0 km/h (0 Bft)
14.12.2013 02:25 -7,4 C 89 % 1025,8 hPa 0,0 l/m 0,0 km/h (0 Bft) O 90 -8,9 C -7,2 C 0,0 km/h (0 Bft)
14.12.2013 02:30 -7,4 C 89 % 1025,8 hPa 0,0 l/m 0,0 km/h (0 Bft) O 90 -8,9 C -7,2 C 0,0 km/h (0 Bft)
14.12.2013 02:35 -7,2 C 89 % 1025,8 hPa 0,0 l/m 0,0 km/h (0 Bft) O 90 -8,7 C -7,2 C 0,0 km/h (0 Bft)
14.12.2013 02:40 -7,2 C 89 % 1025,8 hPa 0,0 l/m 0,0 km/h (0 Bft) O 90 -8,7 C -7,0 C 0,0 km/h (0 Bft)
14.12.2013 02:45 -7,3 C 89 % 1026,1 hPa 0,0 l/m 0,0 km/h (0 Bft) O 90 -8,8 C -7,2 C 0,0 km/h (0 Bft)
14.12.2013 02:50 -7,1 C 89 % 1026,1 hPa 0,0 l/m 0,0 km/h (0 Bft) O 90 -8,6 C -7,3 C 0,0 km/h (0 Bft)
14.12.2013 02:55 -7,2 C 88 % 1026,1 hPa 0,0 l/m 0,0 km/h (0 Bft) O 90 -8,8 C -7,3 C 0,0 km/h (0 Bft)
14.12.2013 03:00 -7,7 C 88 % 1026,1 hPa 0,0 l/m 0,0 km/h (0 Bft) SO 135 -9,3 C -7,3 C 0,0 km/h (0 Bft)
14.12.2013 03:05 -7,6 C 88 % 1025,9 hPa 0,0 l/m 0,0 km/h (0 Bft) O 90 -9,2 C -7,4 C 0,0 km/h (0 Bft)
14.12.2013 03:10 -7,8 C 88 % 1025,9 hPa 0,0 l/m 0,0 km/h (0 Bft) O 90 -9,4 C -7,6 C 0,0 km/h (0 Bft)
14.12.2013 03:15 -7,7 C 88 % 1025,9 hPa 0,0 l/m 0,0 km/h (0 Bft) O-NO 67 -9,3 C -7,6 C 0,0 km/h (0 Bft)
14.12.2013 03:20 -7,6 C 88 % 1025,9 hPa 0,0 l/m 0,2 km/h (0 Bft) NO 45 -9,2 C -7,6 C 0,0 km/h (0 Bft)
14.12.2013 03:25 -7,7 C 88 % 1025,9 hPa 0,0 l/m 0,3 km/h (0 Bft) NO 45 -9,3 C -7,6 C 1,8 km/h (1 Bft)
14.12.2013 03:30 -7,7 C 88 % 1025,9 hPa 0,0 l/m 0,5 km/h (0 Bft) SO 135 -9,3 C -7,4 C 2,1 km/h (1 Bft)
14.12.2013 03:35 -7,0 C 88 % 1025,9 hPa 0,0 l/m 0,6 km/h (0 Bft) S-SW 202 -8,6 C -7,1 C 0,0 km/h (0 Bft)
14.12.2013 03:40 -7,4 C 88 % 1025,9 hPa 0,0 l/m 0,5 km/h (0 Bft) O 90 -9,0 C -7,0 C 2,6 km/h (1 Bft)
14.12.2013 03:45 -5,4 C 89 % 1025,8 hPa 0,0 l/m 1,4 km/h (1 Bft) O-SO 112 -6,9 C -6,7 C 6,1 km/h (2 Bft)
14.12.2013 03:50 -5,1 C 90 % 1025,8 hPa 0,0 l/m 2,7 km/h (1 Bft) O-NO 67 -6,5 C -6,8 C 2,4 km/h (1 Bft)
14.12.2013 03:55 -5,6 C 90 % 1025,8 hPa 0,0 l/m 2,7 km/h (1 Bft) NO 45 -7,0 C -6,7 C 0,0 km/h (0 Bft)
14.12.2013 04:00 -6,9 C 89 % 1025,8 hPa 0,0 l/m 1,1 km/h (1 Bft) NO 45 -8,4 C -6,3 C 0,0 km/h (0 Bft)
14.12.2013 04:05 -6,8 C 89 % 1025,6 hPa 0,0 l/m 0,6 km/h (0 Bft) S 180 -8,3 C -6,7 C 0,0 km/h (0 Bft)
14.12.2013 04:10 -6,5 C 89 % 1025,6 hPa 0,0 l/m 0,8 km/h (0 Bft) O 90 -8,0 C -6,7 C 0,0 km/h (0 Bft)
14.12.2013 04:15 -7,1 C 89 % 1025,6 hPa 0,0 l/m 0,3 km/h (0 Bft) O 90 -8,6 C -6,8 C 0,0 km/h (0 Bft)
14.12.2013 04:20 -7,3 C 89 % 1025,6 hPa 0,0 l/m 0,0 km/h (0 Bft) O 90 -8,8 C -7,0 C 0,0 km/h (0 Bft)
14.12.2013 04:25 -7,4 C 89 % 1025,7 hPa 0,0 l/m 0,0 km/h (0 Bft) O 90 -8,9 C -7,2 C 0,0 km/h (0 Bft)
14.12.2013 04:30 -7,3 C 89 % 1025,7 hPa 0,0 l/m 0,5 km/h (0 Bft) O 90 -8,8 C -7,1 C 0,0 km/h (0 Bft)
14.12.2013 04:35 -7,3 C 89 % 1025,7 hPa 0,0 l/m 0,5 km/h (0 Bft) O 90 -8,8 C -7,3 C 0,0 km/h (0 Bft)
14.12.2013 04:40 -7,4 C 89 % 1025,7 hPa 0,0 l/m 0,2 km/h (0 Bft) O-NO 67 -8,9 C -7,4 C 0,0 km/h (0 Bft)
14.12.2013 04:45 -7,6 C 88 % 1025,6 hPa 0,0 l/m 0,0 km/h (0 Bft) O-NO 67 -9,2 C -7,5 C 0,0 km/h (0 Bft)
14.12.2013 04:50 -8,1 C 88 % 1025,6 hPa 0,0 l/m 0,0 km/h (0 Bft) O 90 -9,7 C -7,8 C 0,0 km/h (0 Bft)
14.12.2013 04:55 -8,2 C 88 % 1025,6 hPa 0,0 l/m 0,0 km/h (0 Bft) O-NO 67 -9,8 C -8,1 C 0,0 km/h (0 Bft)
14.12.2013 05:00 -7,9 C 88 % 1025,6 hPa 0,0 l/m 0,0 km/h (0 Bft) NO 45 -9,5 C -8,2 C 0,0 km/h (0 Bft)
14.12.2013 05:05 -8,0 C 88 % 1025,8 hPa 0,0 l/m 0,2 km/h (0 Bft) N-NO 22 -9,6 C -7,9 C 0,0 km/h (0 Bft)
14.12.2013 05:10 -7,9 C 88 % 1025,8 hPa 0,0 l/m 0,5 km/h (0 Bft) N-NO 22 -9,5 C -7,9 C 0,0 km/h (0 Bft)
14.12.2013 05:15 -7,9 C 88 % 1025,8 hPa 0,0 l/m 0,3 km/h (0 Bft) N-NO 22 -9,5 C -7,8 C 0,0 km/h (0 Bft)
14.12.2013 05:20 -8,1 C 88 % 1025,8 hPa 0,0 l/m 0,0 km/h (0 Bft) N-NO 22 -9,7 C -7,8 C 0,0 km/h (0 Bft)
14.12.2013 05:25 -8,1 C 88 % 1026,0 hPa 0,0 l/m 0,0 km/h (0 Bft) N-NO 22 -9,7 C -7,9 C 0,0 km/h (0 Bft)
14.12.2013 05:30 -8,3 C 87 % 1026,0 hPa 0,0 l/m 0,0 km/h (0 Bft) N-NO 22 -10,1 C -8,1 C 0,0 km/h (0 Bft)
14.12.2013 05:35 -8,4 C 87 % 1026,0 hPa 0,0 l/m 0,0 km/h (0 Bft) N-NO 22 -10,2 C -8,3 C 0,0 km/h (0 Bft)
14.12.2013 05:40 -8,3 C 87 % 1026,0 hPa 0,0 l/m 0,0 km/h (0 Bft) N-NO 22 -10,1 C -8,3 C 0,0 km/h (0 Bft)
14.12.2013 05:45 -8,1 C 87 % 1026,2 hPa 0,0 l/m 0,0 km/h (0 Bft) N-NO 22 -9,9 C -8,3 C 0,0 km/h (0 Bft)
14.12.2013 05:50 -8,5 C 87 % 1026,2 hPa 0,0 l/m 0,0 km/h (0 Bft) N-NO 22 -10,3 C -8,4 C 0,0 km/h (0 Bft)
14.12.2013 05:55 -8,3 C 87 % 1026,2 hPa 0,0 l/m 0,0 km/h (0 Bft) N-NO 22 -10,1 C -8,5 C 0,0 km/h (0 Bft)
14.12.2013 06:00 -8,2 C 87 % 1026,2 hPa 0,0 l/m 0,0 km/h (0 Bft) N-NO 22 -10,0 C -8,4 C 0,0 km/h (0 Bft)
14.12.2013 06:05 -8,6 C 87 % 1026,2 hPa 0,0 l/m 0,0 km/h (0 Bft) N-NO 22 -10,4 C -8,3 C 0,0 km/h (0 Bft)
14.12.2013 06:10 -8,4 C 87 % 1026,2 hPa 0,0 l/m 0,0 km/h (0 Bft) N-NO 22 -10,2 C -8,5 C 0,0 km/h (0 Bft)
14.12.2013 06:15 -8,4 C 87 % 1026,2 hPa 0,0 l/m 0,2 km/h (0 Bft) N-NO 22 -10,2 C -8,6 C 0,0 km/h (0 Bft)
14.12.2013 06:20 -8,8 C 87 % 1026,2 hPa 0,0 l/m 0,2 km/h (0 Bft) N-NO 22 -10,6 C -8,6 C 0,0 km/h (0 Bft)
14.12.2013 06:25 -8,5 C 87 % 1026,5 hPa 0,0 l/m 0,0 km/h (0 Bft) N-NO 22 -10,3 C -8,6 C 0,0 km/h (0 Bft)
14.12.2013 06:30 -8,4 C 87 % 1026,5 hPa 0,0 l/m 0,2 km/h (0 Bft) N-NO 22 -10,2 C -8,5 C 0,0 km/h (0 Bft)
14.12.2013 06:35 -8,3 C 87 % 1026,5 hPa 0,0 l/m 0,3 km/h (0 Bft) O-NO 67 -10,1 C -8,5 C 2,1 km/h (1 Bft)
14.12.2013 06:40 -8,2 C 87 % 1026,5 hPa 0,0 l/m 0,3 km/h (0 Bft) N 360 -10,0 C -8,4 C 0,0 km/h (0 Bft)
14.12.2013 06:45 -8,6 C 87 % 1026,6 hPa 0,0 l/m 0,3 km/h (0 Bft) W-NW 292 -10,4 C -8,4 C 0,0 km/h (0 Bft)
14.12.2013 06:50 -8,4 C 87 % 1026,6 hPa 0,0 l/m 0,6 km/h (0 Bft) N-NW 337 -10,2 C -8,4 C 0,0 km/h (0 Bft)
14.12.2013 06:55 -8,4 C 87 % 1026,6 hPa 0,0 l/m 1,0 km/h (0 Bft) N 360 -10,2 C -8,4 C 0,0 km/h (0 Bft)
14.12.2013 07:00 -8,4 C 87 % 1026,6 hPa 0,0 l/m 0,5 km/h (0 Bft) NO 45 -10,2 C -8,3 C 1,9 km/h (1 Bft)
14.12.2013 07:05 -8,2 C 87 % 1026,7 hPa 0,0 l/m 0,3 km/h (0 Bft) NO 45 -10,0 C -8,4 C 2,9 km/h (1 Bft)
14.12.2013 07:08 -8,4 C 87 % 1026,7 hPa 0,0 l/m 0,5 km/h (0 Bft) W-SW 247 -10,2 C -8,0 C 0,0 km/h (0 Bft)
14.12.2013 07:10 -8,4 C 87 % 1026,7 hPa 0,0 l/m 0,5 km/h (0 Bft) W-SW 247 -10,2 C -8,0 C 0,0 km/h (0 Bft)
14.12.2013 07:15 -8,5 C 87 % 1026,7 hPa 0,0 l/m 0,6 km/h (0 Bft) N 360 -10,3 C -8,1 C 2,1 km/h (1 Bft)
14.12.2013 07:20 -8,4 C 87 % 1026,7 hPa 0,0 l/m 0,6 km/h (0 Bft) N-NO 22 -10,2 C -8,4 C 0,0 km/h (0 Bft)
14.12.2013 07:25 -8,2 C 87 % 1026,8 hPa 0,0 l/m 0,6 km/h (0 Bft) O-NO 67 -10,0 C -8,3 C 0,0 km/h (0 Bft)
14.12.2013 07:30 -8,5 C 87 % 1026,8 hPa 0,0 l/m 0,8 km/h (0 Bft) S-SW 202 -10,3 C -8,3 C 0,0 km/h (0 Bft)
14.12.2013 07:35 -8,6 C 87 % 1026,8 hPa 0,0 l/m 0,6 km/h (0 Bft) S-SO 157 -10,4 C -8,3 C 0,0 km/h (0 Bft)
14.12.2013 07:40 -7,9 C 87 % 1026,8 hPa 0,0 l/m 0,3 km/h (0 Bft) NO 45 -9,7 C -8,5 C 4,0 km/h (1 Bft)
14.12.2013 07:45 -6,2 C 88 % 1026,9 hPa 0,0 l/m 0,8 km/h (0 Bft) N-NO 22 -7,9 C -8,4 C 0,0 km/h (0 Bft)
14.12.2013 07:50 -8,0 C 88 % 1026,9 hPa 0,0 l/m 0,6 km/h (0 Bft) N 360 -9,6 C -8,5 C 0,0 km/h (0 Bft)
14.12.2013 07:55 -8,1 C 88 % 1026,9 hPa 0,0 l/m 0,2 km/h (0 Bft) N-NW 337 -9,7 C -8,5 C 0,0 km/h (0 Bft)
14.12.2013 08:00 -8,3 C 87 % 1026,9 hPa 0,0 l/m 0,0 km/h (0 Bft) N-NO 22 -10,1 C -8,3 C 0,0 km/h (0 Bft)
14.12.2013 08:05 -8,5 C 87 % 1027,1 hPa 0,0 l/m 0,0 km/h (0 Bft) N 360 -10,3 C -8,3 C 1,9 km/h (1 Bft)
14.12.2013 08:10 -8,3 C 87 % 1027,1 hPa 0,0 l/m 0,0 km/h (0 Bft) N 360 -10,1 C -8,3 C 0,0 km/h (0 Bft)
14.12.2013 08:15 -8,3 C 87 % 1027,1 hPa 0,0 l/m 0,0 km/h (0 Bft) N 360 -10,1 C -8,3 C 0,0 km/h (0 Bft)
14.12.2013 08:20 -8,0 C 87 % 1027,1 hPa 0,0 l/m 0,0 km/h (0 Bft) N-NO 22 -9,8 C -8,3 C 0,0 km/h (0 Bft)
14.12.2013 08:25 -8,2 C 87 % 1027,2 hPa 0,0 l/m 0,2 km/h (0 Bft) N-NW 337 -10,0 C -8,1 C 0,0 km/h (0 Bft)
14.12.2013 08:30 -8,3 C 87 % 1027,2 hPa 0,0 l/m 0,2 km/h (0 Bft) N 360 -10,1 C -8,1 C 0,0 km/h (0 Bft)
14.12.2013 08:35 -8,1 C 87 % 1027,2 hPa 0,0 l/m 0,2 km/h (0 Bft) N 360 -9,9 C -8,0 C 0,0 km/h (0 Bft)
14.12.2013 08:40 -8,0 C 87 % 1027,2 hPa 0,0 l/m 0,2 km/h (0 Bft) NO 45 -9,8 C -8,0 C 0,0 km/h (0 Bft)
14.12.2013 08:45 -7,9 C 87 % 1027,6 hPa 0,0 l/m 0,0 km/h (0 Bft) NO 45 -9,7 C -7,9 C 0,0 km/h (0 Bft)
14.12.2013 08:50 -7,9 C 87 % 1027,6 hPa 0,0 l/m 0,0 km/h (0 Bft) N-NO 22 -9,7 C -7,8 C 0,0 km/h (0 Bft)
14.12.2013 08:55 -7,8 C 87 % 1027,6 hPa 0,0 l/m 0,0 km/h (0 Bft) N-NW 337 -9,6 C -7,8 C 0,0 km/h (0 Bft)
14.12.2013 09:00 -7,5 C 88 % 1027,6 hPa 0,0 l/m 0,0 km/h (0 Bft) N-NW 337 -9,1 C -7,5 C 0,0 km/h (0 Bft)
14.12.2013 09:05 -7,8 C 87 % 1027,6 hPa 0,0 l/m 0,0 km/h (0 Bft) N-NW 337 -9,6 C -7,4 C 0,0 km/h (0 Bft)
14.12.2013 09:10 -6,6 C 88 % 1027,6 hPa 0,0 l/m 0,8 km/h (0 Bft) W-NW 292 -8,2 C -7,3 C 7,9 km/h (2 Bft)
14.12.2013 09:15 -7,1 C 88 % 1027,6 hPa 0,0 l/m 1,0 km/h (0 Bft) N 360 -8,7 C -7,1 C 0,0 km/h (0 Bft)
14.12.2013 09:20 -5,9 C 89 % 1027,6 hPa 0,0 l/m 1,8 km/h (1 Bft) O-SO 112 -7,4 C -6,5 C 12,1 km/h (2 Bft)
14.12.2013 09:25 -5,9 C 89 % 1027,8 hPa 0,0 l/m 2,7 km/h (1 Bft) NO 45 -7,4 C -7,1 C 6,1 km/h (2 Bft)
14.12.2013 09:30 -6,0 C 89 % 1027,8 hPa 0,0 l/m 1,9 km/h (1 Bft) N-NW 337 -7,5 C -5,9 C 3,2 km/h (1 Bft)
14.12.2013 09:35 -5,7 C 89 % 1027,8 hPa 0,0 l/m 1,9 km/h (1 Bft) W 270 -7,2 C -6,0 C 2,4 km/h (1 Bft)
14.12.2013 09:40 -5,5 C 89 % 1027,8 hPa 0,0 l/m 2,1 km/h (1 Bft) N-NW 337 -7,0 C -5,6 C 0,0 km/h (0 Bft)
14.12.2013 09:45 -5,0 C 90 % 1027,8 hPa 0,0 l/m 1,6 km/h (1 Bft) N-NW 337 -6,4 C -5,4 C 2,6 km/h (1 Bft)
14.12.2013 09:50 -5,6 C 89 % 1027,8 hPa 0,0 l/m 0,5 km/h (0 Bft) N 360 -7,1 C -5,3 C 0,0 km/h (0 Bft)
14.12.2013 09:55 -5,3 C 89 % 1027,8 hPa 0,0 l/m 0,3 km/h (0 Bft) N-NW 337 -6,8 C -5,2 C 0,0 km/h (0 Bft)
14.12.2013 10:00 -3,9 C 90 % 1027,8 hPa 0,0 l/m 1,3 km/h (1 Bft) O-SO 112 -5,3 C -5,1 C 10,0 km/h (2 Bft)
14.12.2013 10:05 -3,1 C 91 % 1027,8 hPa 0,0 l/m 4,0 km/h (1 Bft) SO 135 -4,4 C -5,8 C 8,5 km/h (2 Bft)
14.12.2013 10:10 -2,3 C 90 % 1027,8 hPa 0,0 l/m 6,4 km/h (2 Bft) O 90 -3,7 C -5,7 C 12,4 km/h (3 Bft)
14.12.2013 10:15 -1,9 C 90 % 1027,8 hPa 0,0 l/m 5,8 km/h (2 Bft) O-SO 112 -3,3 C -5,3 C 5,0 km/h (1 Bft)
14.12.2013 10:20 -1,6 C 87 % 1027,8 hPa 0,0 l/m 6,0 km/h (2 Bft) SO 135 -3,5 C -4,9 C 6,3 km/h (2 Bft)
14.12.2013 10:25 -1,0 C 86 % 1027,9 hPa 0,0 l/m 6,6 km/h (2 Bft) O 90 -3,0 C -4,9 C 7,1 km/h (2 Bft)
14.12.2013 10:30 -1,6 C 84 % 1027,9 hPa 0,0 l/m 4,3 km/h (1 Bft) O-NO 67 -3,9 C -3,5 C 1,8 km/h (1 Bft)
14.12.2013 10:35 -2,6 C 83 % 1027,9 hPa 0,0 l/m 2,3 km/h (1 Bft) O-SO 112 -5,1 C -2,3 C 6,8 km/h (2 Bft)
14.12.2013 10:40 -1,7 C 84 % 1027,9 hPa 0,0 l/m 3,7 km/h (1 Bft) S 180 -4,0 C -3,0 C 4,8 km/h (1 Bft)
14.12.2013 10:45 -1,1 C 84 % 1028,1 hPa 0,0 l/m 5,0 km/h (1 Bft) S 180 -3,4 C -3,6 C 7,7 km/h (2 Bft)
14.12.2013 10:50 -1,0 C 83 % 1028,1 hPa 0,0 l/m 5,8 km/h (2 Bft) S-SO 157 -3,5 C -3,7 C 7,6 km/h (2 Bft)
14.12.2013 10:55 -0,5 C 83 % 1028,1 hPa 0,0 l/m 6,6 km/h (2 Bft) S-SO 157 -3,0 C -3,9 C 8,2 km/h (2 Bft)
14.12.2013 11:00 -0,2 C 81 % 1028,1 hPa 0,0 l/m 7,1 km/h (2 Bft) S-SO 157 -3,1 C -4,1 C 8,7 km/h (2 Bft)
14.12.2013 11:05 0,1 C 79 % 1027,8 hPa 0,0 l/m 7,6 km/h (2 Bft) SO 135 -3,1 C -4,6 C 9,8 km/h (2 Bft)
14.12.2013 11:10 0,9 C 77 % 1027,8 hPa 0,0 l/m 8,4 km/h (2 Bft) S-SO 157 -2,7 C -4,9 C 13,8 km/h (3 Bft)
14.12.2013 11:15 1,0 C 76 % 1027,8 hPa 0,0 l/m 8,7 km/h (2 Bft) S-SO 157 -2,7 C -5,0 C 5,1 km/h (1 Bft)
14.12.2013 11:20 1,3 C 75 % 1027,8 hPa 0,0 l/m 8,2 km/h (2 Bft) SO 135 -2,6 C -3,5 C 10,1 km/h (2 Bft)
14.12.2013 11:25 1,3 C 74 % 1027,9 hPa 0,0 l/m 7,9 km/h (2 Bft) S 180 -2,8 C -2,6 C 9,2 km/h (2 Bft)
14.12.2013 11:30 1,7 C 72 % 1027,9 hPa 0,0 l/m 9,0 km/h (2 Bft) S 180 -2,8 C -3,1 C 17,1 km/h (3 Bft)
14.12.2013 11:35 1,7 C 73 % 1027,9 hPa 0,0 l/m 8,9 km/h (2 Bft) S 180 -2,6 C -2,5 C 9,5 km/h (2 Bft)
14.12.2013 11:40 2,0 C 73 % 1027,9 hPa 0,0 l/m 8,5 km/h (2 Bft) SO 135 -2,3 C -1,6 C 12,1 km/h (2 Bft)
14.12.2013 11:45 2,1 C 69 % 1027,9 hPa 0,0 l/m 9,2 km/h (2 Bft) SO 135 -3,0 C -2,0 C 11,1 km/h (2 Bft)
14.12.2013 11:50 2,2 C 69 % 1027,9 hPa 0,0 l/m 9,7 km/h (2 Bft) S 180 -2,9 C -2,0 C 17,5 km/h (3 Bft)
14.12.2013 11:55 2,7 C 65 % 1027,9 hPa 0,0 l/m 9,5 km/h (2 Bft) SW 225 -3,2 C -1,5 C 9,2 km/h (2 Bft)
14.12.2013 12:00 2,8 C 65 % 1027,9 hPa 0,0 l/m 9,5 km/h (2 Bft) S 180 -3,1 C -1,2 C 19,2 km/h (3 Bft)
14.12.2013 12:05 2,9 C 65 % 1027,9 hPa 0,0 l/m 8,9 km/h (2 Bft) S 180 -3,0 C -0,3 C 12,2 km/h (2 Bft)
14.12.2013 12:09 3,0 C 60 % 1027,9 hPa 0,0 l/m 9,0 km/h (2 Bft) S 180 -4,0 C -0,5 C 9,8 km/h (2 Bft)
14.12.2013 12:10 3,0 C 60 % 1027,9 hPa 0,0 l/m 9,0 km/h (2 Bft) S 180 -4,0 C -0,5 C 9,8 km/h (2 Bft)
14.12.2013 12:15 3,0 C 60 % 1027,9 hPa 0,0 l/m 10,0 km/h (2 Bft) S 180 -4,0 C -1,6 C 18,5 km/h (3 Bft)
14.12.2013 12:20 3,1 C 60 % 1027,9 hPa 0,0 l/m 12,1 km/h (2 Bft) S 180 -3,9 C -3,6 C 23,5 km/h (4 Bft)
14.12.2013 12:25 3,2 C 60 % 1028,1 hPa 0,0 l/m 11,4 km/h (2 Bft) S 180 -3,8 C -3,0 C 11,9 km/h (2 Bft)
14.12.2013 12:30 3,1 C 60 % 1028,1 hPa 0,0 l/m 9,7 km/h (2 Bft) S 180 -3,9 C -1,1 C 6,3 km/h (2 Bft)
14.12.2013 12:35 3,4 C 60 % 1028,1 hPa 0,0 l/m 9,8 km/h (2 Bft) S-SO 157 -3,6 C -1,3 C 9,8 km/h (2 Bft)
14.12.2013 12:40 3,4 C 59 % 1028,1 hPa 0,0 l/m 9,7 km/h (2 Bft) S 180 -3,8 C -1,0 C 10,0 km/h (2 Bft)
14.12.2013 12:45 3,4 C 59 % 1028,1 hPa 0,0 l/m 9,5 km/h (2 Bft) S-SO 157 -3,8 C -0,6 C 11,3 km/h (2 Bft)
14.12.2013 12:50 3,3 C 60 % 1028,1 hPa 0,0 l/m 10,3 km/h (2 Bft) S-SO 157 -3,7 C -1,5 C 13,8 km/h (3 Bft)
14.12.2013 12:55 3,2 C 60 % 1028,1 hPa 0,0 l/m 10,1 km/h (2 Bft) S 180 -3,8 C -1,2 C 14,2 km/h (3 Bft)
14.12.2013 13:00 3,3 C 61 % 1028,1 hPa 0,0 l/m 9,2 km/h (2 Bft) S-SO 157 -3,5 C -0,2 C 6,4 km/h (2 Bft)
14.12.2013 13:05 3,3 C 61 % 1028,1 hPa 0,0 l/m 8,0 km/h (2 Bft) S 180 -3,5 C 1,1 C 11,3 km/h (2 Bft)
14.12.2013 13:10 3,4 C 62 % 1028,1 hPa 0,0 l/m 8,0 km/h (2 Bft) S-SO 157 -3,2 C 1,2 C 17,9 km/h (3 Bft)
14.12.2013 13:15 3,5 C 60 % 1028,1 hPa 0,0 l/m 9,3 km/h (2 Bft) S 180 -3,5 C -0,1 C 12,2 km/h (2 Bft)
14.12.2013 13:20 3,5 C 61 % 1028,1 hPa 0,0 l/m 9,5 km/h (2 Bft) S 180 -3,3 C -0,1 C 11,9 km/h (2 Bft)
14.12.2013 13:25 3,7 C 61 % 1028,1 hPa 0,0 l/m 9,0 km/h (2 Bft) SO 135 -3,1 C 0,5 C 11,4 km/h (2 Bft)
14.12.2013 13:30 3,8 C 62 % 1028,1 hPa 0,0 l/m 7,9 km/h (2 Bft) S-SO 157 -2,8 C 1,9 C 7,9 km/h (2 Bft)
14.12.2013 13:35 3,9 C 60 % 1028,1 hPa 0,0 l/m 7,7 km/h (2 Bft) S 180 -3,1 C 2,1 C 7,9 km/h (2 Bft)
14.12.2013 13:40 3,9 C 60 % 1028,1 hPa 0,0 l/m 8,2 km/h (2 Bft) S-SO 157 -3,1 C 1,6 C 7,4 km/h (2 Bft)
14.12.2013 13:45 3,6 C 61 % 1028,1 hPa 0,0 l/m 7,6 km/h (2 Bft) S 180 -3,2 C 2,5 C 7,9 km/h (2 Bft)
14.12.2013 13:50 3,8 C 63 % 1028,1 hPa 0,0 l/m 6,9 km/h (2 Bft) S 180 -2,6 C 3,2 C 10,5 km/h (2 Bft)
14.12.2013 13:55 3,9 C 65 % 1028,1 hPa 0,0 l/m 7,4 km/h (2 Bft) S-SO 157 -2,1 C 2,9 C 11,9 km/h (2 Bft)
14.12.2013 14:00 4,0 C 65 % 1028,1 hPa 0,0 l/m 8,5 km/h (2 Bft) S-SW 202 -2,0 C 1,7 C 18,8 km/h (3 Bft)
14.12.2013 14:05 4,0 C 65 % 1028,0 hPa 0,0 l/m 10,3 km/h (2 Bft) S 180 -2,0 C -0,2 C 12,4 km/h (3 Bft)
14.12.2013 14:10 4,1 C 65 % 1028,0 hPa 0,0 l/m 11,9 km/h (2 Bft) S 180 -1,9 C -1,9 C 24,1 km/h (4 Bft)
14.12.2013 14:15 4,1 C 65 % 1028,0 hPa 0,0 l/m 10,5 km/h (2 Bft) S 180 -1,9 C -0,2 C 12,7 km/h (3 Bft)
14.12.2013 14:20 4,1 C 65 % 1028,0 hPa 0,0 l/m 8,9 km/h (2 Bft) S 180 -1,9 C 1,3 C 11,4 km/h (2 Bft)
14.12.2013 14:25 4,0 C 66 % 1028,3 hPa 0,0 l/m 9,0 km/h (2 Bft) S 180 -1,8 C 0,9 C 13,0 km/h (3 Bft)
14.12.2013 14:30 4,0 C 65 % 1028,3 hPa 0,0 l/m 10,5 km/h (2 Bft) SO 135 -2,0 C -1,0 C 14,6 km/h (3 Bft)
14.12.2013 14:35 3,8 C 66 % 1028,3 hPa 0,0 l/m 10,1 km/h (2 Bft) S-SW 202 -2,0 C -0,9 C 11,4 km/h (2 Bft)
14.12.2013 14:40 3,6 C 67 % 1028,3 hPa 0,0 l/m 9,0 km/h (2 Bft) S-SO 157 -1,9 C 0,0 C 6,9 km/h (2 Bft)
14.12.2013 14:45 3,5 C 68 % 1028,5 hPa 0,0 l/m 8,0 km/h (2 Bft) SW 225 -1,8 C 0,9 C 7,7 km/h (2 Bft)
14.12.2013 14:50 3,3 C 68 % 1028,5 hPa 0,0 l/m 6,9 km/h (2 Bft) S 180 -2,0 C 1,9 C 7,9 km/h (2 Bft)
14.12.2013 14:55 3,2 C 69 % 1028,5 hPa 0,0 l/m 6,8 km/h (2 Bft) W-SW 247 -1,9 C 2,0 C 8,4 km/h (2 Bft)
14.12.2013 15:00 3,1 C 69 % 1028,5 hPa 0,0 l/m 6,6 km/h (2 Bft) S 180 -2,0 C 2,0 C 6,3 km/h (2 Bft)
14.12.2013 15:05 3,2 C 69 % 1028,9 hPa 0,0 l/m 7,2 km/h (2 Bft) S 180 -1,9 C 1,1 C 9,7 km/h (2 Bft)
14.12.2013 15:10 3,1 C 69 % 1028,9 hPa 0,0 l/m 8,9 km/h (2 Bft) S 180 -2,0 C -1,1 C 11,9 km/h (2 Bft)
14.12.2013 15:15 3,0 C 70 % 1028,9 hPa 0,0 l/m 8,4 km/h (2 Bft) S 180 -1,9 C -0,7 C 6,6 km/h (2 Bft)
14.12.2013 15:20 3,0 C 71 % 1028,9 hPa 0,0 l/m 7,7 km/h (2 Bft) W 270 -1,7 C -0,1 C 6,4 km/h (2 Bft)
14.12.2013 15:25 2,8 C 73 % 1029,4 hPa 0,0 l/m 7,1 km/h (2 Bft) S 180 -1,5 C 0,4 C 6,8 km/h (2 Bft)
14.12.2013 15:30 2,5 C 76 % 1029,4 hPa 0,0 l/m 6,4 km/h (2 Bft) S-SO 157 -1,3 C 0,8 C 8,7 km/h (2 Bft)
14.12.2013 15:35 2,4 C 77 % 1029,4 hPa 0,0 l/m 6,6 km/h (2 Bft) S 180 -1,2 C 0,3 C 8,7 km/h (2 Bft)
14.12.2013 15:40 2,1 C 78 % 1029,4 hPa 0,0 l/m 6,9 km/h (2 Bft) S 180 -1,3 C -0,4 C 7,1 km/h (2 Bft)
14.12.2013 15:45 2,0 C 79 % 1029,8 hPa 0,0 l/m 6,4 km/h (2 Bft) S 180 -1,2 C 0,1 C 7,6 km/h (2 Bft)
14.12.2013 15:50 1,8 C 82 % 1029,8 hPa 0,0 l/m 6,8 km/h (2 Bft) S 180 -0,9 C -0,7 C 7,7 km/h (2 Bft)
14.12.2013 15:55 1,7 C 84 % 1029,8 hPa 0,0 l/m 6,9 km/h (2 Bft) S 180 -0,7 C -0,9 C 7,2 km/h (2 Bft)
14.12.2013 16:00 1,5 C 86 % 1029,8 hPa 0,0 l/m 6,8 km/h (2 Bft) S-SO 157 -0,6 C -0,8 C 9,0 km/h (2 Bft)
14.12.2013 16:05 1,5 C 88 % 1030,0 hPa 0,0 l/m 6,8 km/h (2 Bft) S-SO 157 -0,3 C -0,8 C 9,0 km/h (2 Bft)
14.12.2013 16:10 1,3 C 89 % 1030,0 hPa 0,0 l/m 6,8 km/h (2 Bft) S-SO 157 -0,3 C -0,8 C 9,0 km/h (2 Bft)
14.12.2013 16:15 1,3 C 89 % 1030,0 hPa 0,0 l/m 6,8 km/h (2 Bft) S-SO 157 -0,3 C -0,8 C 9,0 km/h (2 Bft)
14.12.2013 16:20 1,2 C 91 % 1030,0 hPa 0,0 l/m 0,0 km/h (0 Bft) S-SO 157 -0,1 C -0,4 C 0,0 km/h (0 Bft)
14.12.2013 16:25 1,2 C 91 % 1030,2 hPa 0,0 l/m 0,0 km/h (0 Bft) S-SO 157 -0,1 C -0,4 C 0,0 km/h (0 Bft)
14.12.2013 16:30 1,2 C 92 % 1030,2 hPa 0,0 l/m 0,0 km/h (0 Bft) S-SO 157 0,0 C -0,4 C 0,0 km/h (0 Bft)
14.12.2013 16:35 1,2 C 92 % 1030,2 hPa 0,0 l/m 0,0 km/h (0 Bft) S-SO 157 0,0 C -0,4 C 0,0 km/h (0 Bft)
14.12.2013 16:40 1,2 C 93 % 1030,2 hPa 0,0 l/m 0,0 km/h (0 Bft) S-SO 157 0,2 C -0,4 C 0,0 km/h (0 Bft)
14.12.2013 16:45 1,2 C 93 % 1030,4 hPa 0,0 l/m 0,0 km/h (0 Bft) S-SO 157 0,2 C -0,4 C 0,0 km/h (0 Bft)
14.12.2013 16:50 1,2 C 93 % 1030,4 hPa 0,0 l/m 0,0 km/h (0 Bft) S-SO 157 0,2 C -0,4 C 0,0 km/h (0 Bft)
14.12.2013 16:55 1,2 C 93 % 1030,4 hPa 0,0 l/m 0,0 km/h (0 Bft) S-SO 157 0,2 C -0,4 C 0,0 km/h (0 Bft)
14.12.2013 17:00 1,1 C 94 % 1030,4 hPa 0,0 l/m 0,0 km/h (0 Bft) S-SO 157 0,2 C -0,4 C 0,0 km/h (0 Bft)
14.12.2013 17:05 1,1 C 94 % 1030,7 hPa 0,0 l/m 0,0 km/h (0 Bft) S-SO 157 0,2 C -0,4 C 0,0 km/h (0 Bft)
14.12.2013 17:09 1,1 C 94 % 1030,7 hPa 0,0 l/m 0,0 km/h (0 Bft) S-SO 157 0,2 C -0,4 C 0,0 km/h (0 Bft)
14.12.2013 17:10 1,1 C 94 % 1030,7 hPa 0,0 l/m 0,0 km/h (0 Bft) S-SO 157 0,2 C -0,4 C 0,0 km/h (0 Bft)
14.12.2013 17:15 1,1 C 94 % 1030,7 hPa 0,0 l/m 0,0 km/h (0 Bft) S-SO 157 0,2 C -0,4 C 0,0 km/h (0 Bft)
14.12.2013 17:20 1,0 C 94 % 1030,7 hPa 0,0 l/m 0,0 km/h (0 Bft) S-SO 157 0,1 C -0,4 C 0,0 km/h (0 Bft)
14.12.2013 17:25 1,1 C 94 % 1031,0 hPa 0,0 l/m 0,0 km/h (0 Bft) S-SO 157 0,2 C -0,4 C 0,0 km/h (0 Bft)
14.12.2013 17:30 0,9 C 95 % 1031,0 hPa 0,0 l/m 0,0 km/h (0 Bft) S-SO 157 0,2 C -0,4 C 0,0 km/h (0 Bft)
14.12.2013 17:35 0,9 C 95 % 1031,0 hPa 0,0 l/m 0,0 km/h (0 Bft) S-SO 157 0,2 C -0,4 C 0,0 km/h (0 Bft)
14.12.2013 17:40 0,8 C 95 % 1031,0 hPa 0,0 l/m 0,0 km/h (0 Bft) S-SO 157 0,1 C -0,4 C 0,0 km/h (0 Bft)
14.12.2013 17:45 0,8 C 95 % 1031,1 hPa 0,0 l/m 0,0 km/h (0 Bft) S-SO 157 0,1 C -0,4 C 0,0 km/h (0 Bft)
14.12.2013 17:50 0,8 C 95 % 1031,1 hPa 0,0 l/m 0,0 km/h (0 Bft) S-SO 157 0,1 C -0,4 C 0,0 km/h (0 Bft)
14.12.2013 17:55 0,8 C 95 % 1031,1 hPa 0,0 l/m 0,0 km/h (0 Bft) S-SO 157 0,1 C -0,4 C 0,0 km/h (0 Bft)
14.12.2013 18:00 0,8 C 95 % 1031,1 hPa 0,0 l/m 0,0 km/h (0 Bft) S-SO 157 0,1 C -0,4 C 0,0 km/h (0 Bft)
14.12.2013 18:05 0,8 C 95 % 1031,2 hPa 0,0 l/m 0,0 km/h (0 Bft) S-SO 157 0,1 C -0,4 C 0,0 km/h (0 Bft)
14.12.2013 18:10 0,7 C 95 % 1031,2 hPa 0,0 l/m 0,0 km/h (0 Bft) S-SO 157 -0,0 C -0,4 C 0,0 km/h (0 Bft)
14.12.2013 18:15 0,7 C 95 % 1031,2 hPa 0,0 l/m 0,0 km/h (0 Bft) S-SO 157 -0,0 C -0,4 C 0,0 km/h (0 Bft)
14.12.2013 18:20 0,7 C 95 % 1031,2 hPa 0,0 l/m 0,0 km/h (0 Bft) S-SO 157 -0,0 C -0,4 C 0,0 km/h (0 Bft)
14.12.2013 18:25 0,7 C 95 % 1031,2 hPa 0,0 l/m 0,0 km/h (0 Bft) S-SO 157 -0,0 C -0,4 C 0,0 km/h (0 Bft)
14.12.2013 18:30 0,7 C 95 % 1031,2 hPa 0,0 l/m 0,0 km/h (0 Bft) S-SO 157 -0,0 C -0,4 C 0,0 km/h (0 Bft)
14.12.2013 18:35 0,7 C 95 % 1031,2 hPa 0,0 l/m 0,0 km/h (0 Bft) S-SO 157 -0,0 C -0,4 C 0,0 km/h (0 Bft)
14.12.2013 18:40 0,7 C 95 % 1031,2 hPa 0,0 l/m 0,0 km/h (0 Bft) S-SO 157 -0,0 C -0,4 C 0,0 km/h (0 Bft)
14.12.2013 18:45 0,7 C 95 % 1031,6 hPa 0,0 l/m 0,0 km/h (0 Bft) S-SO 157 -0,0 C -0,4 C 0,0 km/h (0 Bft)
14.12.2013 18:50 0,7 C 95 % 1031,6 hPa 0,0 l/m 0,0 km/h (0 Bft) S-SO 157 -0,0 C -0,4 C 0,0 km/h (0 Bft)
14.12.2013 18:55 0,7 C 95 % 1031,6 hPa 0,0 l/m 0,0 km/h (0 Bft) S-SO 157 -0,0 C -0,4 C 0,0 km/h (0 Bft)
14.12.2013 19:00 0,7 C 95 % 1031,6 hPa 0,0 l/m 0,0 km/h (0 Bft) S-SO 157 -0,0 C -0,4 C 0,0 km/h (0 Bft)
14.12.2013 19:05 0,7 C 95 % 1031,7 hPa 0,0 l/m 0,0 km/h (0 Bft) S-SO 157 -0,0 C -0,4 C 0,0 km/h (0 Bft)
14.12.2013 19:10 0,7 C 95 % 1031,7 hPa 0,0 l/m 0,0 km/h (0 Bft) S-SO 157 -0,0 C -0,4 C 0,0 km/h (0 Bft)
14.12.2013 19:15 0,7 C 95 % 1031,7 hPa 0,0 l/m 0,0 km/h (0 Bft) S-SO 157 -0,0 C -0,4 C 0,0 km/h (0 Bft)
14.12.2013 19:20 0,7 C 95 % 1031,7 hPa 0,0 l/m 0,0 km/h (0 Bft) S-SO 157 -0,0 C -0,4 C 0,0 km/h (0 Bft)
14.12.2013 19:25 0,7 C 95 % 1032,1 hPa 0,0 l/m 0,0 km/h (0 Bft) S-SO 157 -0,0 C -0,4 C 0,0 km/h (0 Bft)
14.12.2013 19:30 0,7 C 95 % 1032,1 hPa 0,0 l/m 0,0 km/h (0 Bft) S-SO 157 -0,0 C -0,4 C 0,0 km/h (0 Bft)
14.12.2013 19:35 0,7 C 95 % 1032,1 hPa 0,0 l/m 0,0 km/h (0 Bft) S-SO 157 -0,0 C -0,4 C 0,0 km/h (0 Bft)
14.12.2013 19:40 0,7 C 95 % 1032,1 hPa 0,0 l/m 0,0 km/h (0 Bft) S-SO 157 -0,0 C -0,4 C 0,0 km/h (0 Bft)
14.12.2013 19:45 0,7 C 95 % 1032,2 hPa 0,0 l/m 0,0 km/h (0 Bft) S-SO 157 -0,0 C -0,4 C 0,0 km/h (0 Bft)
14.12.2013 19:50 0,7 C 95 % 1032,2 hPa 0,0 l/m 0,0 km/h (0 Bft) S-SO 157 -0,0 C -0,4 C 0,0 km/h (0 Bft)
14.12.2013 19:55 0,7 C 95 % 1032,2 hPa 0,0 l/m 0,0 km/h (0 Bft) S-SO 157 -0,0 C -0,4 C 0,0 km/h (0 Bft)
14.12.2013 20:00 0,7 C 95 % 1032,2 hPa 0,0 l/m 0,0 km/h (0 Bft) S-SO 157 -0,0 C -0,4 C 0,0 km/h (0 Bft)
14.12.2013 20:05 0,7 C 95 % 1032,2 hPa 0,0 l/m 0,0 km/h (0 Bft) S-SO 157 -0,0 C -0,4 C 0,0 km/h (0 Bft)
14.12.2013 20:10 0,7 C 95 % 1032,2 hPa 0,0 l/m 0,0 km/h (0 Bft) S-SO 157 -0,0 C -0,4 C 0,0 km/h (0 Bft)
14.12.2013 20:15 0,7 C 95 % 1032,2 hPa 0,0 l/m 0,0 km/h (0 Bft) S-SO 157 -0,0 C -0,4 C 0,0 km/h (0 Bft)
14.12.2013 20:20 0,7 C 95 % 1032,2 hPa 0,0 l/m 0,0 km/h (0 Bft) S-SO 157 -0,0 C -0,4 C 0,0 km/h (0 Bft)
14.12.2013 20:25 0,7 C 95 % 1032,3 hPa 0,0 l/m 0,0 km/h (0 Bft) S-SO 157 -0,0 C -0,4 C 0,0 km/h (0 Bft)
14.12.2013 20:30 0,7 C 95 % 1032,3 hPa 0,0 l/m 0,0 km/h (0 Bft) S-SO 157 -0,0 C -0,4 C 0,0 km/h (0 Bft)
14.12.2013 20:35 0,7 C 95 % 1032,3 hPa 0,0 l/m 0,0 km/h (0 Bft) S-SO 157 -0,0 C -0,4 C 0,0 km/h (0 Bft)
14.12.2013 20:40 0,7 C 95 % 1032,3 hPa 0,0 l/m 0,0 km/h (0 Bft) S-SO 157 -0,0 C -0,4 C 0,0 km/h (0 Bft)
14.12.2013 20:45 0,7 C 95 % 1032,6 hPa 0,0 l/m 0,0 km/h (0 Bft) S-SO 157 -0,0 C -0,4 C 0,0 km/h (0 Bft)
14.12.2013 20:50 0,7 C 95 % 1032,6 hPa 0,0 l/m 0,0 km/h (0 Bft) S-SO 157 -0,0 C -0,4 C 0,0 km/h (0 Bft)
14.12.2013 20:55 0,7 C 95 % 1032,6 hPa 0,0 l/m 0,0 km/h (0 Bft) S-SO 157 -0,0 C -0,4 C 0,0 km/h (0 Bft)
14.12.2013 21:00 0,7 C 95 % 1032,6 hPa 0,0 l/m 0,0 km/h (0 Bft) S-SO 157 -0,0 C -0,4 C 0,0 km/h (0 Bft)
14.12.2013 21:05 0,7 C 95 % 1032,6 hPa 0,0 l/m 0,0 km/h (0 Bft) S-SO 157 -0,0 C -0,4 C 0,0 km/h (0 Bft)
14.12.2013 21:10 0,7 C 95 % 1032,6 hPa 0,0 l/m 0,0 km/h (0 Bft) S-SO 157 -0,0 C -0,4 C 0,0 km/h (0 Bft)
14.12.2013 21:15 0,7 C 95 % 1032,6 hPa 0,0 l/m 0,0 km/h (0 Bft) S-SO 157 -0,0 C -0,4 C 0,0 km/h (0 Bft)
14.12.2013 21:20 0,7 C 95 % 1032,6 hPa 0,0 l/m 0,0 km/h (0 Bft) S-SO 157 -0,0 C -0,4 C 0,0 km/h (0 Bft)
14.12.2013 21:25 0,7 C 95 % 1032,6 hPa 0,0 l/m 0,0 km/h (0 Bft) S-SO 157 -0,0 C -0,4 C 0,0 km/h (0 Bft)
14.12.2013 21:30 0,7 C 95 % 1032,6 hPa 0,0 l/m 0,0 km/h (0 Bft) S-SO 157 -0,0 C -0,4 C 0,0 km/h (0 Bft)
14.12.2013 21:35 0,7 C 95 % 1032,6 hPa 0,0 l/m 0,0 km/h (0 Bft) S-SO 157 -0,0 C -0,4 C 0,0 km/h (0 Bft)
14.12.2013 21:40 0,7 C 95 % 1032,6 hPa 0,0 l/m 0,0 km/h (0 Bft) S-SO 157 -0,0 C -0,4 C 0,0 km/h (0 Bft)
14.12.2013 21:45 0,7 C 95 % 1032,8 hPa 0,0 l/m 0,0 km/h (0 Bft) S-SO 157 -0,0 C -0,4 C 0,0 km/h (0 Bft)
14.12.2013 21:50 0,7 C 95 % 1032,8 hPa 0,0 l/m 0,0 km/h (0 Bft) S-SO 157 -0,0 C -0,4 C 0,0 km/h (0 Bft)
14.12.2013 21:55 0,7 C 95 % 1032,8 hPa 0,0 l/m 0,0 km/h (0 Bft) S-SO 157 -0,0 C -0,4 C 0,0 km/h (0 Bft)
14.12.2013 22:00 0,7 C 95 % 1032,8 hPa 0,0 l/m 0,0 km/h (0 Bft) S-SO 157 -0,0 C -0,4 C 0,0 km/h (0 Bft)
14.12.2013 22:05 0,7 C 95 % 1032,9 hPa 0,0 l/m 0,0 km/h (0 Bft) S-SO 157 -0,0 C -0,4 C 0,0 km/h (0 Bft)
14.12.2013 22:09 0,7 C 95 % 1032,9 hPa 0,0 l/m 0,0 km/h (0 Bft) S-SO 157 -0,0 C -0,4 C 0,0 km/h (0 Bft)
14.12.2013 22:10 0,7 C 95 % 1032,9 hPa 0,0 l/m 0,0 km/h (0 Bft) S-SO 157 -0,0 C -0,4 C 0,0 km/h (0 Bft)
14.12.2013 22:15 0,7 C 95 % 1032,9 hPa 0,0 l/m 0,0 km/h (0 Bft) S-SO 157 -0,0 C -0,4 C 0,0 km/h (0 Bft)
14.12.2013 22:20 0,7 C 95 % 1032,9 hPa 0,0 l/m 0,0 km/h (0 Bft) S-SO 157 -0,0 C -0,4 C 0,0 km/h (0 Bft)
14.12.2013 22:25 0,7 C 95 % 1033,2 hPa 0,0 l/m 0,0 km/h (0 Bft) S-SO 157 -0,0 C -0,4 C 0,0 km/h (0 Bft)
14.12.2013 22:30 0,7 C 95 % 1033,2 hPa 0,0 l/m 0,0 km/h (0 Bft) S-SO 157 -0,0 C -0,4 C 0,0 km/h (0 Bft)
14.12.2013 22:35 0,7 C 95 % 1033,2 hPa 0,0 l/m 0,0 km/h (0 Bft) S-SO 157 -0,0 C -0,4 C 0,0 km/h (0 Bft)
14.12.2013 22:40 0,7 C 95 % 1033,2 hPa 0,0 l/m 0,0 km/h (0 Bft) S-SO 157 -0,0 C -0,4 C 0,0 km/h (0 Bft)
14.12.2013 22:45 0,7 C 95 % 1033,2 hPa 0,0 l/m 0,0 km/h (0 Bft) S-SO 157 -0,0 C -0,4 C 0,0 km/h (0 Bft)
14.12.2013 22:50 0,7 C 95 % 1033,2 hPa 0,0 l/m 0,0 km/h (0 Bft) S-SO 157 -0,0 C -0,4 C 0,0 km/h (0 Bft)
14.12.2013 22:55 0,7 C 95 % 1033,2 hPa 0,0 l/m 0,0 km/h (0 Bft) S-SO 157 -0,0 C -0,4 C 0,0 km/h (0 Bft)
14.12.2013 23:00 0,7 C 95 % 1033,2 hPa 0,0 l/m 0,0 km/h (0 Bft) S-SO 157 -0,0 C -0,4 C 0,0 km/h (0 Bft)
14.12.2013 23:05 0,7 C 95 % 1033,4 hPa 0,0 l/m 0,0 km/h (0 Bft) S-SO 157 -0,0 C -0,4 C 0,0 km/h (0 Bft)
14.12.2013 23:10 0,7 C 95 % 1033,4 hPa 0,0 l/m 0,0 km/h (0 Bft) S-SO 157 -0,0 C -0,4 C 0,0 km/h (0 Bft)
14.12.2013 23:15 0,7 C 95 % 1033,4 hPa 0,0 l/m 0,0 km/h (0 Bft) S-SO 157 -0,0 C -0,4 C 0,0 km/h (0 Bft)
14.12.2013 23:20 0,7 C 95 % 1033,4 hPa 0,0 l/m 0,0 km/h (0 Bft) S-SO 157 -0,0 C -0,4 C 0,0 km/h (0 Bft)
14.12.2013 23:25 0,7 C 95 % 1033,4 hPa 0,0 l/m 0,0 km/h (0 Bft) S-SO 157 -0,0 C -0,4 C 0,0 km/h (0 Bft)
14.12.2013 23:30 0,7 C 95 % 1033,4 hPa 0,0 l/m 0,0 km/h (0 Bft) S-SO 157 -0,0 C -0,4 C 0,0 km/h (0 Bft)
14.12.2013 23:35 0,7 C 95 % 1033,4 hPa 0,0 l/m 0,0 km/h (0 Bft) S-SO 157 -0,0 C -0,4 C 0,0 km/h (0 Bft)
14.12.2013 23:40 0,7 C 95 % 1033,4 hPa 0,0 l/m 0,0 km/h (0 Bft) S-SO 157 -0,0 C -0,4 C 0,0 km/h (0 Bft)
14.12.2013 23:45 0,7 C 95 % 1033,4 hPa 0,0 l/m 0,0 km/h (0 Bft) S-SO 157 -0,0 C -0,4 C 0,0 km/h (0 Bft)
14.12.2013 23:50 0,7 C 95 % 1033,4 hPa 0,0 l/m 0,0 km/h (0 Bft) S-SO 157 -0,0 C -0,4 C 0,0 km/h (0 Bft)
14.12.2013 23:55 0,5 C 97 % 1033,4 hPa 0,0 l/m 0,0 km/h (0 Bft) S-SO 157 0,1 C -0,4 C 0,0 km/h (0 Bft)
_ Min-Zeit 06:20 12:45 00:40 - 23:55 - - 06:20 06:25 23:55
Minimum _ -8,8 C 59 % 1025,5 hPa - 0,0 km/h (0 Bft) - - -10,6 C -8,6 C 0,0 km/h (0 Bft)
_ Max-Zeit 14:20 23:55 23:55 23:55 12:20 - - 17:25 13:50 14:10
Maximum _ 4,1 C 97 % 1033,4 hPa 0,0 l/m 12,1 km/h
S (2 Bft)
- - 0,2 C 3,2 C 24,1 km/h
S (4 Bft)
Durchschnitt _ -2,3 C 86 % 1028,7 hPa #0,0 l/m 2,2 km/h (1 Bft) S - -4,4 C -3,5 C 3,0 km/h (1 Bft)